Time;durP1;ratioP1;P1;durP2;ratioP2;P2;SDS_P1;SDS_P2;PMS_P1;PMS_P2;Temp;Humidity;BMP_temperature;BMP_pressure;BME280_temperature;BME280_humidity;BME280_pressure;Samples;Min_cycle;Max_cycle;Signal;HPM_P1;HPM_P2
2022/12/01 00:00:33;;;;;;;25.48;9.55;;;;;;;18.73;62.22;98639.81;2080933;28;19935;-49
2022/12/01 00:01:34;;;;;;;;;;;;;;;18.63;62.46;98644.72;2082345;28;20153;-48
2022/12/01 00:02:35;;;;;;;;;;;;;;;18.53;62.71;98640.59;2075230;28;20671;-51
2022/12/01 00:03:37;;;;;;;20.08;6.93;;;;;;;18.64;62.62;98644.53;2077810;28;19928;-48
2022/12/01 00:04:38;;;;;;;25.40;7.50;;;;;;;18.69;61.88;98635.84;2083873;28;20091;-50
2022/12/01 00:05:39;;;;;;;;;;;;;;;18.61;61.81;98641.41;2079523;28;20524;-49
2022/12/01 00:06:40;;;;;;;;;;;;;;;18.51;62.47;98644.50;2078875;28;19932;-52
2022/12/01 00:07:42;;;;;;;17.80;6.93;;;;;;;18.57;62.80;98640.19;2076195;28;20975;-47
2022/12/01 00:10:24;;;;;;;16.90;6.43;;;;;;;18.62;62.64;98640.41;2077824;28;20037;-48
2022/12/01 00:10:24;;;;;;;20.70;7.82;;;;;;;18.64;61.92;98641.84;2078947;28;20052;-47
2022/12/01 00:11:28;;;;;;;18.60;8.07;;;;;;;18.64;62.10;98644.53;2085485;28;20095;-45
2022/12/01 00:12:29;;;;;;;22.10;7.65;;;;;;;18.66;62.17;98650.53;2084782;28;20060;-51
2022/12/01 00:13:31;;;;;;;16.88;7.40;;;;;;;18.67;61.93;98643.31;2084911;28;20049;-49
2022/12/01 00:14:32;;;;;;;23.25;6.78;;;;;;;18.65;62.31;98637.31;2080349;28;20052;-48
2022/12/01 00:15:35;;;;;;;;;;;;;;;18.50;62.17;98641.00;2076282;28;20471;-47
2022/12/01 00:16:36;;;;;;;19.85;7.95;;;;;;;18.53;62.13;98651.34;2077236;28;19940;-49
2022/12/01 00:17:37;;;;;;;;;;;;;;;18.40;62.67;98640.53;2078770;28;20284;-48
2022/12/01 00:18:38;;;;;;;13.35;6.53;;;;;;;18.45;62.62;98639.94;2080276;28;19932;-48
2022/12/01 00:19:40;;;;;;;;;;;;;;;18.36;62.56;98639.31;2083006;28;20067;-45
2022/12/01 00:20:40;;;;;;;;;;;;;;;18.29;63.04;98638.44;2086072;28;20325;-49
2022/12/01 00:21:42;;;;;;;13.90;6.68;;;;;;;18.36;63.06;98643.81;2078669;28;20020;-45
2022/12/01 00:22:44;;;;;;;14.73;7.65;;;;;;;18.42;62.44;98648.41;2080712;28;20049;-49
2022/12/01 00:23:47;;;;;;;17.67;7.55;;;;;;;18.46;62.10;98638.91;2077554;28;20151;-46
2022/12/01 00:24:48;;;;;;;14.77;6.80;;;;;;;18.46;62.20;98646.97;2082879;28;20045;-47
2022/12/01 00:25:49;;;;;;;;;;;;;;;18.33;62.88;98650.44;2083945;28;20053;-47
2022/12/01 00:26:51;;;;;;;;;;;;;;;18.24;62.69;98654.31;2084485;28;20023;-46
2022/12/01 00:27:54;;;;;;;17.30;7.18;;;;;;;18.31;62.77;98647.13;2080951;28;24008;-47
2022/12/01 00:28:58;;;;;;;18.73;7.40;;;;;;;18.37;63.05;98650.88;2075773;28;20056;-46
2022/12/01 00:29:59;;;;;;;18.92;6.60;;;;;;;18.38;62.48;98637.22;2077046;28;20168;-49
2022/12/01 00:31:00;;;;;;;18.98;7.28;;;;;;;18.39;62.65;98649.63;2076880;28;20060;-47
2022/12/01 00:32:02;;;;;;;;;;;;;;;18.27;62.77;98646.69;2079486;28;20057;-45
2022/12/01 00:33:03;;;;;;;19.63;6.63;;;;;;;18.31;62.26;98647.13;2077321;28;20731;-47
2022/12/01 00:34:04;;;;;;;;;;;;;;;18.19;62.85;98646.88;2083132;28;20044;-48
2022/12/01 00:35:07;;;;;;;15.57;7.60;;;;;;;18.24;62.42;98639.03;2081617;28;20641;-49
2022/12/01 00:36:09;;;;;;;20.35;7.80;;;;;;;18.28;62.54;98647.53;2081026;28;20056;-47
2022/12/01 00:37:10;;;;;;;15.88;7.35;;;;;;;18.31;62.55;98647.13;2078746;28;20048;-47
2022/12/01 00:38:11;;;;;;;;;;;;;;;18.19;63.04;98648.72;2074342;28;20060;-49
2022/12/01 00:39:12;;;;;;;;;;;;;;;18.09;63.22;98646.41;2078724;28;19963;-48
2022/12/01 00:40:14;;;;;;;14.57;6.57;;;;;;;18.18;63.13;98649.75;2081376;28;20524;-45
2022/12/01 00:41:15;;;;;;;13.25;7.03;;;;;;;18.22;62.63;98649.16;2082756;28;20051;-48
2022/12/01 00:42:19;;;;;;;;;;;;;;;18.13;63.06;98644.16;2081964;28;20634;-49
2022/12/01 00:43:20;;;;;;;19.67;7.90;;;;;;;18.18;62.35;98647.06;2083653;28;19928;-48
2022/12/01 00:44:22;;;;;;;;;;;;;;;18.07;63.46;98646.59;2083215;28;20080;-45
2022/12/01 00:45:22;;;;;;;14.10;6.90;;;;;;;18.14;63.00;98645.84;2083367;28;20904;-46
2022/12/01 00:46:24;;;;;;;;;;;;;;;18.06;63.20;98644.13;2081543;28;20065;-45
2022/12/01 00:47:25;;;;;;;19.45;6.97;;;;;;;18.11;63.08;98646.22;2072010;28;19929;-46
2022/12/01 00:48:27;;;;;;;18.42;6.97;;;;;;;18.16;62.53;98646.44;2080070;28;20072;-46
2022/12/01 00:49:28;;;;;;;13.60;6.90;;;;;;;18.20;62.75;98653.09;2078684;28;20579;-46
2022/12/01 00:50:29;;;;;;;;;;;;;;;18.07;63.05;98649.28;2083246;28;20045;-46
2022/12/01 00:51:30;;;;;;;;;;;;;;;17.98;62.88;98642.44;2083686;28;19928;-46
2022/12/01 00:52:32;;;;;;;15.53;5.67;;;;;;;18.03;63.25;98649.91;2076567;28;22017;-47
2022/12/01 00:53:32;;;;;;;19.77;7.03;;;;;;;18.08;62.51;98642.91;2074216;28;20302;-47
2022/12/01 00:54:34;;;;;;;;;;;;;;;17.98;63.18;98645.13;2080181;28;20057;-45
2022/12/01 00:55:35;;;;;;;;;;;;;;;17.92;62.70;98653.16;2081993;28;20434;-46
2022/12/01 00:56:36;;;;;;;14.93;7.67;;;;;;;17.99;63.18;98648.63;2075282;28;19939;-45
2022/12/01 00:57:40;;;;;;;17.13;6.60;;;;;;;18.05;62.65;98651.38;2074853;28;20041;-47
2022/12/01 00:58:40;;;;;;;11.68;7.38;;;;;;;18.05;63.22;98651.38;2077835;28;20423;-45
2022/12/01 00:59:42;;;;;;;;;;;;;;;17.96;63.07;98649.03;2080400;28;20140;-46
2022/12/01 01:00:46;;;;;;;18.77;7.55;;;;;;;17.99;63.08;98644.09;2079314;28;20610;-45
2022/12/01 01:01:48;;;;;;;15.77;5.97;;;;;;;18.03;62.40;98642.69;2081629;28;20091;-50
2022/12/01 01:02:49;;;;;;;13.57;6.35;;;;;;;18.03;63.02;98645.38;2083555;28;20854;-52
2022/12/01 01:03:50;;;;;;;;;;;;;;;17.92;63.26;98639.75;2081052;28;20128;-46
2022/12/01 01:04:51;;;;;;;8.85;5.85;;;;;;;17.95;63.18;98645.53;2080245;28;19929;-48
2022/12/01 01:05:52;;;;;;;;;;;;;;;17.86;63.25;98649.41;2083511;28;20057;-47
2022/12/01 01:06:54;;;;;;;15.98;6.88;;;;;;;17.92;63.34;98639.75;2081331;28;19955;-50
2022/12/01 01:07:55;;;;;;;21.35;6.78;;;;;;;17.96;62.30;98639.13;2080448;28;20045;-46
2022/12/01 01:08:57;;;;;;;;;;;;;;;17.87;63.21;98645.69;2079629;28;20063;-47
2022/12/01 01:09:57;;;;;;;;;;;;;;;17.77;62.95;98639.81;2077424;28;19940;-47
2022/12/01 01:11:00;;;;;;;11.30;5.10;;;;;;;17.85;63.31;98637.00;2081603;28;20609;-48
2022/12/01 01:12:01;;;;;;;10.10;6.03;;;;;;;17.90;63.03;98645.28;2081159;28;20068;-46
2022/12/01 01:13:04;;;;;;;;;;;;;;;17.81;63.36;98636.59;2082082;28;20051;-46
2022/12/01 01:14:05;;;;;;;18.73;6.20;;;;;;;17.84;62.87;98636.19;2077493;28;19925;-47
2022/12/01 01:15:08;;;;;;;9.55;6.07;;;;;;;17.89;62.99;98632.09;2079228;28;20132;-47
2022/12/01 01:16:13;;;;;;;9.30;6.30;;;;;;;17.91;62.88;98636.22;2080220;28;20060;-46
2022/12/01 01:17:15;;;;;;;17.02;7.00;;;;;;;17.90;63.05;98639.94;2072370;28;20053;-47
2022/12/01 01:18:16;;;;;;;8.48;5.57;;;;;;;17.90;62.64;98634.56;2076082;28;20056;-51
2022/12/01 01:19:18;;;;;;;;;;;;;;;17.79;63.21;98637.81;2076208;28;20052;-48
2022/12/01 01:20:18;;;;;;;;;;;;;;;17.69;63.36;98642.66;2077817;28;19924;-47
2022/12/01 01:21:22;;;;;;;12.57;5.70;;;;;;;17.75;63.42;98632.00;2079376;28;19935;-46
2022/12/01 01:22:23;;;;;;;13.32;6.25;;;;;;;17.80;63.04;98628.72;2076701;28;20092;-46
2022/12/01 01:23:25;;;;;;;;;;;;;;;17.70;63.22;98644.34;2079568;28;20083;-49
2022/12/01 01:24:25;;;;;;;12.00;6.53;;;;;;;17.75;63.40;98636.53;2078483;28;19920;-47
2022/12/01 01:25:27;;;;;;;;;;;;;;;17.67;63.37;98636.69;2077489;28;20049;-48
2022/12/01 01:26:30;;;;;;;10.52;5.70;;;;;;;17.73;63.34;98638.56;2076608;28;19936;-46
2022/12/01 01:27:31;;;;;;;13.50;6.35;;;;;;;17.76;63.03;98640.84;2079578;28;20505;-48
2022/12/01 01:28:34;;;;;;;8.88;6.32;;;;;;;17.79;62.91;98637.81;2076909;28;20049;-46
2022/12/01 01:29:36;;;;;;;11.50;6.05;;;;;;;17.79;63.19;98629.75;2077782;28;20045;-48
2022/12/01 01:30:38;;;;;;;16.02;6.25;;;;;;;17.79;62.96;98640.50;2075767;28;20052;-47
2022/12/01 01:31:40;;;;;;;16.52;7.30;;;;;;;17.81;63.06;98635.75;2073954;28;20072;-48
2022/12/01 01:32:41;;;;;;;9.35;5.65;;;;;;;17.80;62.79;98634.94;2080206;28;20111;-46
2022/12/01 01:33:42;;;;;;;;;;;;;;;17.65;63.16;98648.41;2079187;28;20052;-47
2022/12/01 01:34:44;;;;;;;14.63;5.22;;;;;;;17.68;63.20;98641.00;2080830;28;19931;-47
2022/12/01 01:35:46;;;;;;;10.82;5.88;;;;;;;17.70;63.08;98647.03;2073290;28;20190;-51
2022/12/01 01:36:47;;;;;;;13.32;6.18;;;;;;;17.70;63.21;98639.78;2079576;28;20131;-47
2022/12/01 01:37:49;;;;;;;;;;;;;;;17.59;63.24;98645.72;2079825;28;20121;-47
2022/12/01 01:38:50;;;;;;;12.18;6.03;;;;;;;17.63;63.16;98645.13;2075993;28;19924;-48
2022/12/01 01:39:52;;;;;;;;;;;;;;;17.52;63.24;98648.31;2079604;28;20501;-48
2022/12/01 01:40:52;;;;;;;;;;;;;;;17.46;63.74;98642.94;2085236;28;19924;-47
2022/12/01 01:41:54;;;;;;;11.40;5.68;;;;;;;17.55;63.62;98647.13;2074360;28;19920;-47
2022/12/01 01:42:55;;;;;;;11.95;5.85;;;;;;;17.59;63.47;98643.84;2081336;28;20079;-50
2022/12/01 01:43:59;;;;;;;;;;;;;;;17.47;63.90;98642.75;2078777;28;20056;-47
2022/12/01 01:45:00;;;;;;;11.18;5.90;;;;;;;17.50;63.77;98642.34;2080999;28;20676;-47
2022/12/01 01:46:01;;;;;;;;;;;;;;;17.42;63.95;98635.28;2073706;28;20128;-46
2022/12/01 01:47:03;;;;;;;;;;;;;;;17.38;63.91;98646.59;2080350;28;19982;-46
2022/12/01 01:48:04;;;;;;;12.13;6.03;;;;;;;17.44;63.99;98629.75;2077702;28;20810;-46
2022/12/01 01:49:09;;;;;;;11.23;5.72;;;;;;;17.53;63.73;98630.41;2081252;28;20417;-46
2022/12/01 01:50:13;;;;;;;12.85;4.90;;;;;;;17.54;63.72;98635.56;2079310;28;20041;-48
2022/12/01 01:51:19;;;;;;;11.00;5.68;;;;;;;17.54;63.62;98634.75;2072385;28;20052;-48
2022/12/01 01:52:22;;;;;;;16.17;6.05;;;;;;;17.55;63.43;98633.69;2073015;28;20076;-46
2022/12/01 01:53:24;;;;;;;12.10;6.15;;;;;;;17.55;63.56;98628.34;2080901;28;20045;-47
2022/12/01 01:54:30;;;;;;;12.60;5.72;;;;;;;17.55;63.56;98631.03;2077264;28;20064;-49
2022/12/01 01:55:34;;;;;;;8.57;4.75;;;;;;;17.53;63.60;98633.09;2081950;28;20064;-46
2022/12/01 01:56:36;;;;;;;11.93;5.70;;;;;;;17.52;63.38;98632.25;2076809;28;20053;-46
2022/12/01 01:57:38;;;;;;;14.07;5.50;;;;;;;17.52;63.77;98626.06;2077216;28;20060;-46
2022/12/01 01:58:41;;;;;;;11.80;5.22;;;;;;;17.51;63.72;98635.13;2081870;28;20045;-46
2022/12/01 01:59:47;;;;;;;13.85;5.72;;;;;;;17.50;63.60;98623.59;2083468;28;20717;-46
2022/12/01 02:00:48;;;;;;;7.82;4.82;;;;;;;17.52;63.50;98631.41;2081064;28;20049;-47
2022/12/01 02:01:52;;;;;;;;;;;;;;;17.37;63.75;98628.84;2082442;28;20102;-48
2022/12/01 02:02:56;;;;;;;8.77;5.30;;;;;;;17.41;63.85;98630.09;2079343;28;19931;-48
2022/12/01 02:03:58;;;;;;;14.90;6.35;;;;;;;17.43;63.86;98633.44;2080568;28;20045;-47
2022/12/01 02:05:01;;;;;;;8.55;5.00;;;;;;;17.45;63.64;98627.88;2080039;28;20521;-47
2022/12/01 02:06:04;;;;;;;10.55;5.40;;;;;;;17.44;63.74;98635.09;2076999;28;20042;-47
2022/12/01 02:07:05;;;;;;;12.43;5.78;;;;;;;17.44;63.77;98632.41;2074687;28;20774;-47
2022/12/01 02:08:11;;;;;;;9.25;5.90;;;;;;;17.45;63.76;98630.56;2079305;28;20462;-47
2022/12/01 02:09:11;;;;;;;10.65;5.65;;;;;;;17.43;63.79;98628.88;2081781;28;20048;-48
2022/12/01 02:10:14;;;;;;;;;;;;;;;17.31;64.21;98627.78;2081977;28;20759;-48
2022/12/01 02:11:51;;;;;;;10.40;5.68;;;;;;;17.35;63.85;98628.22;2077290;28;19924;-47
2022/12/01 02:13:11;;;;;;;11.13;5.72;;;;;;;17.38;63.96;98627.81;2081941;28;20843;-47
2022/12/01 02:14:21;;;;;;;11.38;4.95;;;;;;;17.43;63.84;98634.25;2079042;28;20045;-48
2022/12/01 02:15:33;;;;;;;10.85;5.25;;;;;;;17.44;63.74;98624.38;2081747;28;20102;-47
2022/12/01 02:16:43;;;;;;;8.90;5.10;;;;;;;17.47;63.81;98620.44;2074366;28;20047;-48
2022/12/01 02:17:52;;;;;;;8.68;4.68;;;;;;;17.46;63.99;98630.34;2077749;28;20051;-47
2022/12/01 02:19:08;;;;;;;9.45;5.85;;;;;;;17.47;63.37;98629.34;2081178;28;20049;-46
2022/12/01 02:20:38;;;;;;;10.50;5.38;;;;;;;17.46;63.63;98626.84;2077665;28;20049;-48
2022/12/01 02:21:57;;;;;;;10.13;5.45;;;;;;;17.45;63.54;98628.69;2072247;28;20045;-46
2022/12/01 02:23:31;;;;;;;10.15;5.65;;;;;;;17.43;64.06;98625.38;2079710;28;20071;-47
2022/12/01 02:24:52;;;;;;;9.23;5.28;;;;;;;17.42;63.43;98627.25;2078958;28;20394;-49
2022/12/01 02:26:05;;;;;;;13.77;4.90;;;;;;;17.44;63.60;98624.38;2073772;28;20531;-46
2022/12/01 02:27:15;;;;;;;10.00;4.88;;;;;;;17.46;63.97;98619.63;2083139;28;20053;-46
2022/12/01 02:28:45;;;;;;;9.88;5.13;;;;;;;17.46;63.58;98624.16;2080975;28;20049;-47
2022/12/01 02:30:13;;;;;;;14.38;5.32;;;;;;;17.43;63.91;98617.34;2073516;28;20060;-47
2022/12/01 02:31:21;;;;;;;9.70;4.50;;;;;;;17.46;63.95;98621.47;2075482;28;20037;-47
2022/12/01 02:32:32;;;;;;;9.48;5.32;;;;;;;17.46;63.70;98621.47;2077479;28;20140;-46
2022/12/01 02:33:40;;;;;;;11.10;5.90;;;;;;;17.47;63.75;98623.13;2079348;28;20506;-49
2022/12/01 02:34:49;;;;;;;11.35;6.15;;;;;;;17.45;63.68;98612.63;2074881;28;20060;-48
2022/12/01 02:36:00;;;;;;;13.35;6.28;;;;;;;17.46;63.94;98614.25;2076830;28;20040;-47
2022/12/01 02:37:06;;;;;;;6.65;4.90;;;;;;;17.45;63.85;98617.97;2080055;28;20048;-46
2022/12/01 02:38:14;;;;;;;6.95;4.72;;;;;;;17.45;63.41;98615.28;2082352;28;20051;-51
2022/12/01 02:39:21;;;;;;;8.50;4.68;;;;;;;17.46;63.98;98616.13;2083756;28;21969;-47
2022/12/01 02:40:27;;;;;;;11.73;4.72;;;;;;;17.47;63.82;98607.88;2079984;28;20136;-47
2022/12/01 02:41:34;;;;;;;10.77;5.65;;;;;;;17.47;63.56;98617.75;2082276;28;20045;-46
2022/12/01 02:42:50;;;;;;;9.65;4.45;;;;;;;17.45;63.90;98612.63;2076154;28;20052;-47
2022/12/01 02:43:58;;;;;;;12.52;5.68;;;;;;;17.45;63.91;98611.78;2078245;28;20057;-48
2022/12/01 02:45:02;;;;;;;9.52;5.35;;;;;;;17.44;63.64;98605.59;2081162;28;20671;-47
2022/12/01 02:46:10;;;;;;;12.15;5.53;;;;;;;17.43;63.32;98604.75;2079566;28;20045;-48
2022/12/01 02:47:15;;;;;;;9.77;5.15;;;;;;;17.42;63.80;98605.78;2083934;28;20052;-47
2022/12/01 02:48:24;;;;;;;11.52;5.18;;;;;;;17.43;64.14;98606.63;2084084;28;20049;-48
2022/12/01 02:49:27;;;;;;;8.05;5.07;;;;;;;17.43;63.78;98606.63;2084670;28;20044;-47
2022/12/01 02:50:32;;;;;;;8.40;4.97;;;;;;;17.43;63.88;98607.44;2079610;28;20049;-46
2022/12/01 02:51:36;;;;;;;10.25;4.88;;;;;;;17.43;63.60;98615.47;2079789;28;20049;-50
2022/12/01 02:52:38;;;;;;;7.43;4.35;;;;;;;17.43;63.85;98606.63;2083095;28;20056;-48
2022/12/01 02:53:41;;;;;;;9.38;4.57;;;;;;;17.45;63.95;98612.63;2084233;28;20044;-47
2022/12/01 02:54:44;;;;;;;10.43;4.13;;;;;;;17.45;63.84;98611.78;2081333;28;20084;-46
2022/12/01 02:55:51;;;;;;;6.95;5.20;;;;;;;17.45;63.92;98606.44;2082995;28;20047;-48
2022/12/01 02:56:52;;;;;;;12.13;4.60;;;;;;;17.44;64.01;98613.66;2083415;28;20535;-46
2022/12/01 02:57:54;;;;;;;;;;;;;;;17.31;64.36;98614.38;2082822;28;20059;-46
2022/12/01 02:58:55;;;;;;;;;;;;;;;17.25;64.60;98614.34;2084630;28;19924;-46
2022/12/01 02:59:57;;;;;;;6.88;4.82;;;;;;;17.28;64.29;98614.78;2082493;28;19924;-47
2022/12/01 03:01:17;;;;;;;7.32;4.63;;;;;;;17.31;64.17;98613.56;2081495;28;20060;-48
2022/12/01 03:02:41;;;;;;;10.13;4.60;;;;;;;17.35;64.04;98609.44;2078555;28;20053;-47
2022/12/01 03:03:58;;;;;;;9.05;4.88;;;;;;;17.30;64.24;98615.41;2081461;28;20377;-47
2022/12/01 03:05:07;;;;;;;10.13;4.85;;;;;;;17.33;63.92;98611.50;2080582;28;20044;-47
2022/12/01 03:06:19;;;;;;;9.77;4.60;;;;;;;17.37;63.87;98612.75;2077849;28;20076;-48
2022/12/01 03:07:43;;;;;;;7.20;4.72;;;;;;;17.31;63.98;98609.00;2079769;28;20049;-46
2022/12/01 03:08:55;;;;;;;10.35;5.93;;;;;;;17.31;63.98;98608.19;2074786;28;20140;-49
2022/12/01 03:10:08;;;;;;;13.90;4.70;;;;;;;17.27;64.26;98613.09;2081855;28;20049;-45
2022/12/01 03:11:25;;;;;;;10.85;4.20;;;;;;;17.28;64.14;98613.94;2074948;28;20490;-47
2022/12/01 03:12:33;;;;;;;6.75;4.93;;;;;;;17.31;64.17;98609.00;2078506;28;20135;-47
2022/12/01 03:13:41;;;;;;;10.20;4.10;;;;;;;17.34;63.89;98607.81;2084529;28;20049;-46
2022/12/01 03:14:51;;;;;;;9.00;4.80;;;;;;;17.33;63.92;98612.34;2082902;28;20127;-46
2022/12/01 03:15:58;;;;;;;10.85;4.05;;;;;;;17.31;64.09;98608.19;2080385;28;20262;-48
2022/12/01 03:17:08;;;;;;;14.93;4.80;;;;;;;17.30;64.04;98617.25;2082016;28;20654;-46
2022/12/01 03:18:21;;;;;;;10.60;5.18;;;;;;;17.29;63.96;98611.06;2077092;28;20048;-47
2022/12/01 03:19:33;;;;;;;12.63;4.82;;;;;;;17.28;64.06;98606.72;2078260;28;20053;-46
2022/12/01 03:20:39;;;;;;;13.13;5.57;;;;;;;17.27;64.02;98607.72;2074449;28;20052;-47
2022/12/01 03:21:46;;;;;;;6.65;4.35;;;;;;;17.24;64.10;98612.66;2080606;28;20049;-49
2022/12/01 03:22:52;;;;;;;8.90;5.00;;;;;;;17.23;64.30;98611.84;2075833;28;20076;-49
2022/12/01 03:23:58;;;;;;;11.90;4.70;;;;;;;17.23;64.02;98611.84;2081277;28;20704;-46
2022/12/01 03:25:02;;;;;;;10.93;4.97;;;;;;;17.23;64.22;98613.69;2084194;28;20485;-46
2022/12/01 03:26:08;;;;;;;10.13;4.25;;;;;;;17.23;63.99;98616.38;2082338;28;20041;-45
2022/12/01 03:27:11;;;;;;;9.07;4.97;;;;;;;17.27;63.87;98606.91;2083296;28;20052;-47
2022/12/01 03:28:17;;;;;;;10.45;5.13;;;;;;;17.23;63.94;98616.38;2081234;28;20620;-47
2022/12/01 03:29:24;;;;;;;9.52;4.63;;;;;;;17.25;63.98;98614.34;2083907;28;20110;-47
2022/12/01 03:30:29;;;;;;;8.25;4.90;;;;;;;17.26;63.89;98616.00;2082933;28;20080;-50
2022/12/01 03:31:34;;;;;;;11.48;4.40;;;;;;;17.24;63.96;98618.03;2083417;28;20037;-47
2022/12/01 03:32:41;;;;;;;6.45;4.03;;;;;;;17.23;64.01;98619.06;2082944;28;20052;-46
2022/12/01 03:33:49;;;;;;;8.70;4.00;;;;;;;17.22;63.93;98612.88;2078393;28;20057;-49
2022/12/01 03:34:57;;;;;;;9.93;4.63;;;;;;;17.22;63.86;98612.03;2081669;28;20049;-47
2022/12/01 03:36:05;;;;;;;6.97;3.83;;;;;;;17.20;63.82;98607.69;2080991;28;20744;-47
2022/12/01 03:37:14;;;;;;;6.45;3.92;;;;;;;17.22;63.84;98610.19;2078412;28;20059;-46
2022/12/01 03:38:19;;;;;;;8.00;4.40;;;;;;;17.19;63.81;98615.94;2081123;28;20044;-47
2022/12/01 03:39:26;;;;;;;11.07;5.45;;;;;;;17.18;63.94;98612.41;2084404;28;20049;-46
2022/12/01 03:40:30;;;;;;;10.15;4.18;;;;;;;17.16;63.88;98611.81;2083716;28;20045;-47
2022/12/01 03:41:37;;;;;;;10.52;4.57;;;;;;;17.15;63.85;98618.16;2076136;28;20060;-53
2022/12/01 03:42:42;;;;;;;8.52;3.85;;;;;;;17.17;63.84;98618.00;2079104;28;20044;-47
2022/12/01 03:43:49;;;;;;;10.35;4.28;;;;;;;17.15;63.90;98614.66;2075618;28;21020;-49
2022/12/01 03:44:55;;;;;;;7.35;3.75;;;;;;;17.12;64.04;98617.75;2073171;28;20056;-45
2022/12/01 03:46:03;;;;;;;11.93;4.43;;;;;;;17.13;63.93;98617.56;2080863;28;20590;-49
2022/12/01 03:47:08;;;;;;;14.13;5.28;;;;;;;17.15;64.08;98615.50;2076193;28;20645;-49
2022/12/01 03:48:10;;;;;;;8.30;4.60;;;;;;;17.16;64.19;98616.31;2072920;28;20053;-46
2022/12/01 03:49:15;;;;;;;11.70;4.57;;;;;;;17.18;64.05;98609.75;2081165;28;20060;-44
2022/12/01 03:50:18;;;;;;;8.38;4.30;;;;;;;17.19;63.87;98611.41;2079089;28;20049;-45
2022/12/01 03:51:26;;;;;;;7.38;4.57;;;;;;;17.22;63.88;98614.72;2078849;28;20417;-46
2022/12/01 03:52:40;;;;;;;8.75;3.70;;;;;;;17.19;63.87;98616.78;2077710;28;20060;-45
2022/12/01 03:53:49;;;;;;;8.70;3.83;;;;;;;17.21;63.88;98608.53;2082667;28;20080;-46
2022/12/01 03:55:02;;;;;;;18.50;4.68;;;;;;;17.19;64.12;98614.09;2080130;28;21271;-47
2022/12/01 03:56:06;;;;;;;6.43;3.70;;;;;;;17.21;64.10;98613.88;2081894;28;20057;-46
2022/12/01 03:57:11;;;;;;;9.93;3.88;;;;;;;17.23;64.00;98614.53;2081341;28;20497;-47
2022/12/01 03:58:17;;;;;;;5.88;3.65;;;;;;;17.24;63.95;98615.34;2082087;28;20049;-47
2022/12/01 03:59:23;;;;;;;6.63;4.50;;;;;;;17.24;64.13;98612.66;2078771;28;21089;-47
2022/12/01 04:00:24;;;;;;;9.70;4.43;;;;;;;17.26;63.90;98614.13;2075860;28;20041;-46
2022/12/01 04:01:31;;;;;;;10.50;3.92;;;;;;;17.28;64.06;98619.31;2075511;28;20048;-45
2022/12/01 04:02:32;;;;;;;8.38;3.97;;;;;;;17.28;64.05;98619.31;2074986;28;20063;-46
2022/12/01 04:03:33;;;;;;;;;;;;;;;17.18;64.07;98622.31;2082510;28;21878;-45
2022/12/01 04:04:36;;;;;;;;;;;;;;;17.10;64.56;98617.91;2082966;28;20627;-47
2022/12/01 04:05:38;;;;;;;7.70;3.63;;;;;;;17.15;64.28;98618.16;2079847;28;19964;-47
2022/12/01 04:06:46;;;;;;;9.23;4.40;;;;;;;17.21;64.07;98619.25;2082026;28;21759;-46
2022/12/01 04:07:48;;;;;;;7.38;4.00;;;;;;;17.22;64.10;98612.88;2082916;28;20041;-45
2022/12/01 04:08:49;;;;;;;7.63;3.60;;;;;;;17.25;64.23;98614.34;2081018;28;20040;-47
2022/12/01 04:09:51;;;;;;;;;;;;;;;17.15;64.58;98620.84;2083287;28;20068;-45
2022/12/01 04:10:52;;;;;;;7.43;3.28;;;;;;;17.17;63.98;98616.13;2082364;28;19936;-47
2022/12/01 04:13:21;;;;;;;6.32;3.47;;;;;;;17.16;64.41;98614.50;2082396;28;20308;-45
2022/12/01 04:14:22;;;;;;;7.15;3.92;;;;;;;17.17;64.20;98618.81;2082226;28;20096;-48
2022/12/01 04:15:24;;;;;;;;;;;;;;;17.10;64.49;98622.44;2076127;28;20719;-48
2022/12/01 04:16:25;;;;;;;6.18;3.75;;;;;;;17.16;64.69;98625.22;2073085;28;19928;-44
2022/12/01 04:17:28;;;;;;;4.85;3.75;;;;;;;17.20;64.39;98621.09;2074614;28;20056;-44
2022/12/01 04:18:29;;;;;;;5.90;3.35;;;;;;;17.23;64.36;98627.09;2076022;28;20053;-48
2022/12/01 04:19:31;;;;;;;;;;;;;;;17.15;64.55;98622.72;2077127;28;20125;-46
2022/12/01 04:20:33;;;;;;;;;;;;;;;17.05;64.83;98624.88;2079693;28;20041;-46
2022/12/01 04:21:35;;;;;;;11.50;4.78;;;;;;;17.12;64.78;98629.28;2076251;28;19944;-47
2022/12/01 04:22:37;;;;;;;9.02;4.22;;;;;;;17.18;64.57;98620.47;2075688;28;20912;-45
2022/12/01 04:24:58;;;;;;;7.13;3.70;;;;;;;17.22;64.30;98625.44;2081664;28;20045;-47
2022/12/01 04:26:00;;;;;;;10.48;3.78;;;;;;;17.24;64.33;98623.38;2082180;28;20095;-48
2022/12/01 04:27:02;;;;;;;7.80;3.63;;;;;;;17.24;64.27;98623.38;2082576;28;20058;-47
2022/12/01 04:28:03;;;;;;;7.65;3.85;;;;;;;17.26;64.25;98621.34;2081856;28;20452;-46
2022/12/01 04:29:07;;;;;;;;;;;;;;;17.13;64.63;98620.25;2082836;28;20056;-46
2022/12/01 04:30:09;;;;;;;6.65;3.78;;;;;;;17.16;64.43;98625.22;2081895;28;19928;-46
2022/12/01 04:31:11;;;;;;;9.05;3.80;;;;;;;17.21;64.18;98629.97;2071073;28;20055;-46
2022/12/01 04:32:12;;;;;;;5.75;4.22;;;;;;;17.20;64.22;98625.63;2078434;28;20109;-47
2022/12/01 04:33:14;;;;;;;;;;;;;;;17.11;64.31;98627.63;2083978;28;20130;-45
2022/12/01 04:34:14;;;;;;;;;;;;;;;17.03;64.78;98627.78;2082750;28;19929;-47
2022/12/01 04:35:16;;;;;;;8.13;4.13;;;;;;;17.08;64.78;98625.34;2082212;28;20299;-48
2022/12/01 04:36:18;;;;;;;7.03;3.92;;;;;;;17.15;64.46;98626.22;2082228;28;20291;-46
2022/12/01 04:37:20;;;;;;;16.55;4.47;;;;;;;17.17;64.36;98621.50;2082402;28;20045;-46
2022/12/01 04:38:21;;;;;;;18.52;4.82;;;;;;;17.19;64.25;98632.84;2082577;28;20053;-46
2022/12/01 04:39:22;;;;;;;;;;;;;;;17.09;64.70;98635.03;2082487;28;20056;-46
2022/12/01 04:40:23;;;;;;;7.68;3.78;;;;;;;17.11;64.32;98624.94;2078888;28;19925;-47
2022/12/01 04:41:24;;;;;;;;;;;;;;;17.05;64.50;98630.25;2081557;28;20048;-47
2022/12/01 04:42:26;;;;;;;4.97;3.67;;;;;;;17.10;64.59;98627.81;2082402;28;20514;-48
2022/12/01 04:43:27;;;;;;;8.65;3.40;;;;;;;17.13;64.31;98624.75;2081823;28;20052;-45
2022/12/01 04:44:28;;;;;;;;;;;;;;;17.03;64.56;98625.09;2084520;28;20131;-46
2022/12/01 04:45:29;;;;;;;7.63;3.50;;;;;;;17.05;64.54;98631.09;2081706;28;19925;-45
2022/12/01 04:46:31;;;;;;;;;;;;;;;16.97;65.03;98628.56;2075200;28;20048;-45
2022/12/01 04:47:33;;;;;;;10.27;4.00;;;;;;;17.05;64.64;98622.19;2081570;28;20003;-47
2022/12/01 04:48:34;;;;;;;6.10;3.55;;;;;;;17.08;64.59;98622.66;2078780;28;20053;-45
2022/12/01 04:49:36;;;;;;;8.55;3.63;;;;;;;17.08;64.55;98625.34;2082879;28;20045;-45
2022/12/01 04:50:37;;;;;;;7.47;3.90;;;;;;;17.13;64.50;98628.28;2079667;28;20048;-44
2022/12/01 04:51:40;;;;;;;;;;;;;;;17.02;64.88;98626.13;2080716;28;20487;-44
2022/12/01 04:52:40;;;;;;;11.23;3.80;;;;;;;17.08;64.59;98625.34;2077549;28;19928;-46
2022/12/01 04:53:42;;;;;;;;;;;;;;;17.04;64.85;98625.91;2079080;28;20059;-44
2022/12/01 04:54:43;;;;;;;4.90;3.22;;;;;;;17.11;64.73;98626.81;2082669;28;19932;-47
2022/12/01 04:55:44;;;;;;;;;;;;;;;17.08;64.96;98624.53;2083344;28;20721;-47
2022/12/01 04:56:45;;;;;;;6.22;3.92;;;;;;;17.15;64.71;98615.50;2082271;28;19924;-49
2022/12/01 04:57:46;;;;;;;;;;;;;;;17.12;64.86;98615.88;2083331;28;20132;-47
2022/12/01 04:58:47;;;;;;;6.82;3.05;;;;;;;17.19;64.81;98616.78;2081377;28;19925;-47
2022/12/01 04:59:49;;;;;;;;;;;;;;;17.19;64.76;98610.59;2081817;28;20127;-46
2022/12/01 05:00:50;;;;;;;7.78;3.13;;;;;;;17.27;64.51;98615.78;2077905;28;19924;-47
2022/12/01 05:01:51;;;;;;;;;;;;;;;17.29;64.65;98616.41;2082471;28;20056;-47
2022/12/01 05:02:52;;;;;;;;;;;;;;;17.28;64.67;98614.78;2080166;28;19935;-49
2022/12/01 05:03:54;;;;;;;6.83;3.10;;;;;;;17.34;64.73;98618.53;2080404;28;19979;-45
2022/12/01 05:04:54;;;;;;;5.00;3.50;;;;;;;17.41;64.62;98614.00;2078079;28;20049;-46
2022/12/01 05:06:01;;;;;;;;;;;;;;;17.37;64.55;98618.13;2082364;28;20147;-45
2022/12/01 05:07:03;;;;;;;6.28;2.92;;;;;;;17.46;64.51;98626.84;2078946;28;20392;-44
2022/12/01 05:08:05;;;;;;;9.00;3.10;;;;;;;17.50;64.42;98610.19;2081721;28;20053;-47
2022/12/01 05:09:08;;;;;;;10.05;3.65;;;;;;;17.53;64.30;98611.63;2081210;28;20048;-47
2022/12/01 05:10:09;;;;;;;6.85;2.97;;;;;;;17.57;64.23;98610.22;2079362;28;20060;-45
2022/12/01 05:11:12;;;;;;;5.40;3.10;;;;;;;17.59;64.20;98610.84;2081387;28;20049;-46